Time;durP1;ratioP1;P1;durP2;ratioP2;P2;SDS_P1;SDS_P2;PMS_P1;PMS_P2;Temp;Humidity;BMP_temperature;BMP_pressure;BME280_temperature;BME280_humidity;BME280_pressure;Samples;Min_cycle;Max_cycle;Signal;HPM_P1;HPM_P2
2023/12/13 00:01:58;;;;;;;;;;;;;;;9.65;75.79;98941.47;4426393;32;33494;-77
2023/12/13 00:04:26;;;;;;;;;;;;;;;9.58;76.15;98946.38;4427348;32;33970;-77
2023/12/13 00:06:53;;;;;;;;;;;;;;;9.80;75.60;98938.53;4428174;32;34998;-77
2023/12/13 00:09:20;;;;;;;;;;;;;;;9.64;76.39;98931.09;4429178;32;34458;-78
2023/12/13 00:11:48;;;;;;;;;;;;;;;9.64;76.62;98931.97;4428960;32;33469;-77
2023/12/13 00:14:15;;;;;;;;;;;;;;;9.58;76.43;98921.41;4433074;32;35010;-76
2023/12/13 00:16:42;;;;;;;;;;;;;;;9.61;76.28;98911.16;4415391;32;34085;-76
2023/12/13 00:19:09;;;;;;;;;;;;;;;9.14;78.05;98912.97;4432612;32;34491;-77
2023/12/13 00:21:37;;;;;;;;;;;;;;;9.53;77.12;98911.75;4430764;32;33043;-77
2023/12/13 00:24:04;;;;;;;;;;;;;;;9.33;77.60;98903.25;4433508;32;34164;-77
2023/12/13 00:26:32;;;;;;;;;;;;;;;9.40;77.57;98897.50;4425002;32;34905;-77
2023/12/13 00:28:59;;;;;;;;;;;;;;;9.36;77.36;98903.37;4427296;32;33850;-77
2023/12/13 00:31:26;;;;;;;;;;;;;;;9.17;78.50;98886.34;4430188;32;33627;-78
2023/12/13 00:33:54;;;;;;;;;;;;;;;9.47;77.79;98902.06;4426535;32;33838;-78
2023/12/13 00:36:21;;;;;;;;;;;;;;;9.60;77.01;98883.56;4437177;32;34188;-78
2023/12/13 00:38:48;;;;;;;;;;;;;;;9.66;76.33;98890.66;4433643;32;33781;-77
2023/12/13 00:41:16;;;;;;;;;;;;;;;9.67;76.75;98891.53;4429577;32;34054;-77
2023/12/13 00:43:43;;;;;;;;;;;;;;;9.65;76.57;98887.16;4430992;32;34122;-77
2023/12/13 00:46:14;;;;;;;;;;;;;;;9.36;77.94;98885.28;4424760;32;33727;-76
2023/12/13 00:48:42;;;;;;;;;;;;;;;9.47;77.61;98886.56;4428158;32;34733;-77
2023/12/13 00:51:16;;;;;;;;;;;;;;;9.61;77.10;98874.97;4425372;32;33334;-78
2023/12/13 00:53:43;;;;;;;;;;;;;;;9.72;76.68;98890.84;4427845;32;34026;-77
2023/12/13 00:56:11;;;;;;;;;;;;;;;9.76;76.77;98894.41;4420366;32;34888;-77
2023/12/13 00:58:38;;;;;;;;;;;;;;;9.86;75.88;98891.31;4434067;32;34019;-77
2023/12/13 01:01:06;;;;;;;;;;;;;;;9.71;76.41;98885.63;4418913;32;34258;-78
2023/12/13 01:03:34;;;;;;;;;;;;;;;9.74;76.11;98875.38;4433018;32;33941;-76
2023/12/13 01:06:01;;;;;;;;;;;;;;;9.47;77.17;98876.22;4426692;32;34998;-78
2023/12/13 01:08:28;;;;;;;;;;;;;;;9.59;77.02;98871.44;4425581;32;34340;-78
2023/12/13 01:10:56;;;;;;;;;;;;;;;9.50;77.16;98868.53;4431044;32;34237;-78
2023/12/13 01:13:23;;;;;;;;;;;;;;;9.15;78.74;98857.87;4432044;32;34115;-77
2023/12/13 01:15:50;;;;;;;;;;;;;;;9.54;77.05;98851.44;4421760;32;34910;-78
2023/12/13 01:18:18;;;;;;;;;;;;;;;9.61;77.12;98851.69;4429771;32;34965;-77
2023/12/13 01:20:45;;;;;;;;;;;;;;;9.67;77.09;98842.37;4413766;32;34190;-78
2023/12/13 01:23:13;;;;;;;;;;;;;;;9.70;76.69;98847.69;4425904;32;34245;-78
2023/12/13 01:25:40;;;;;;;;;;;;;;;9.85;76.01;98832.66;4430732;32;34711;-78
2023/12/13 01:28:08;;;;;;;;;;;;;;;9.80;76.03;98835.06;4421058;32;34476;-78
2023/12/13 01:30:36;;;;;;;;;;;;;;;9.83;76.07;98830.00;4426740;32;34392;-77
2023/12/13 01:33:03;;;;;;;;;;;;;;;9.88;75.23;98822.38;4425122;32;33901;-77
2023/12/13 01:35:30;;;;;;;;;;;;;;;9.54;76.96;98829.06;4429796;32;33939;-78
2023/12/13 01:37:58;;;;;;;;;;;;;;;9.70;76.23;98821.81;4431993;32;34003;-76
2023/12/13 01:40:25;;;;;;;;;;;;;;;9.60;76.59;98813.75;4429708;32;33292;-78
2023/12/13 01:42:52;;;;;;;;;;;;;;;9.72;76.48;98820.16;4422169;32;34634;-77
2023/12/13 01:45:20;;;;;;;;;;;;;;;9.84;76.07;98817.94;4426021;32;34985;-77
2023/12/13 01:47:47;;;;;;;;;;;;;;;9.48;76.85;98805.56;4425719;32;34990;-78
2023/12/13 01:50:15;;;;;;;;;;;;;;;9.79;75.84;98809.16;4418126;32;34413;-77
2023/12/13 01:52:42;;;;;;;;;;;;;;;9.76;75.76;98788.38;4422501;32;33878;-78
2023/12/13 01:55:10;;;;;;;;;;;;;;;9.44;77.00;98789.13;4414542;32;34282;-77
2023/12/13 01:57:37;;;;;;;;;;;;;;;9.63;76.43;98780.22;4407739;32;33892;-77
2023/12/13 02:00:05;;;;;;;;;;;;;;;9.64;76.22;98782.00;4408264;32;32418;-77
2023/12/13 02:02:36;;;;;;;;;;;;;;;9.57;76.50;98774.84;4411502;32;34152;-77
2023/12/13 02:05:04;;;;;;;;;;;;;;;9.82;75.54;98765.28;4426218;32;35072;-77
2023/12/13 02:07:31;;;;;;;;;;;;;;;9.74;75.59;98759.88;4428126;32;34143;-77
2023/12/13 02:09:59;;;;;;;;;;;;;;;9.62;76.09;98762.97;4430284;32;34292;-78
2023/12/13 02:12:26;;;;;;;;;;;;;;;9.46;76.79;98752.94;4429563;32;33494;-77
2023/12/13 02:14:54;;;;;;;;;;;;;;;9.50;76.50;98752.22;4420125;32;33784;-77
2023/12/13 02:17:21;;;;;;;;;;;;;;;9.20;77.16;98746.94;4433537;32;33877;-77
2023/12/13 02:19:49;;;;;;;;;;;;;;;9.53;76.25;98744.56;4428043;32;33522;-78
2023/12/13 02:22:16;;;;;;;;;;;;;;;9.60;75.79;98738.78;4432048;32;34056;-77
2023/12/13 02:24:44;;;;;;;;;;;;;;;9.59;76.17;98734.41;4432848;32;32920;-79
2023/12/13 02:27:11;;;;;;;;;;;;;;;9.81;75.09;98732.50;4411135;32;35104;-77
2023/12/13 02:29:39;;;;;;;;;;;;;;;9.60;75.62;98728.44;4421450;32;33719;-78
2023/12/13 02:32:11;;;;;;;;;;;;;;;9.78;74.97;98727.25;4416871;32;33880;-77
2023/12/13 02:34:39;;;;;;;;;;;;;;;9.48;75.39;98728.03;4434820;32;33924;-78
2023/12/13 02:37:06;;;;;;;;;;;;;;;9.73;74.34;98713.28;4433926;32;34423;-78
2023/12/13 02:39:33;;;;;;;;;;;;;;;9.33;76.03;98722.38;4434719;32;33520;-78
2023/12/13 02:42:01;;;;;;;;;;;;;;;9.39;76.18;98717.41;4433162;32;33947;-77
2023/12/13 02:44:28;;;;;;;;;;;;;;;9.47;75.50;98710.78;4420951;32;34912;-77
2023/12/13 02:46:58;;;;;;;;;;;;;;;9.39;75.79;98712.25;4432071;32;34506;-78
2023/12/13 02:49:26;;;;;;;;;;;;;;;9.53;75.12;98710.09;4424561;32;33095;-78
2023/12/13 02:51:54;;;;;;;;;;;;;;;9.43;75.20;98703.75;4421357;32;34901;-77
2023/12/13 02:54:21;;;;;;;;;;;;;;;9.50;74.96;98692.75;4434557;32;33948;-77
2023/12/13 02:56:48;;;;;;;;;;;;;;;9.57;74.59;98699.88;4425023;32;35109;-77
2023/12/13 02:59:16;;;;;;;;;;;;;;;9.59;75.01;98700.81;4431269;32;33717;-77
2023/12/13 03:01:43;;;;;;;;;;;;;;;9.53;75.01;98690.28;4425745;32;34366;-78
2023/12/13 03:04:10;;;;;;;;;;;;;;;9.63;74.70;98702.66;4432013;32;34243;-77
2023/12/13 03:06:38;;;;;;;;;;;;;;;9.69;74.49;98706.25;4421459;32;34090;-77
2023/12/13 03:09:05;;;;;;;;;;;;;;;9.70;74.25;98708.03;4422963;32;34000;-78
2023/12/13 03:11:33;;;;;;;;;;;;;;;9.69;74.41;98707.13;4433986;32;34354;-77
2023/12/13 03:14:01;;;;;;;;;;;;;;;9.68;74.28;98700.22;4433240;32;34793;-78
2023/12/13 03:16:28;;;;;;;;;;;;;;;9.84;73.63;98696.38;4433787;32;34445;-77
2023/12/13 03:18:56;;;;;;;;;;;;;;;9.80;73.68;98684.19;4430584;32;33076;-78
2023/12/13 03:21:23;;;;;;;;;;;;;;;9.78;73.77;98680.69;4423960;32;34641;-77
2023/12/13 03:23:50;;;;;;;;;;;;;;;9.76;73.75;98679.78;4414133;32;32531;-78
2023/12/13 03:26:18;;;;;;;;;;;;;;;9.74;73.64;98679.72;4429859;32;34198;-78
2023/12/13 03:28:45;;;;;;;;;;;;;;;9.84;73.34;98683.47;4423992;32;34140;-78
2023/12/13 03:31:13;;;;;;;;;;;;;;;9.88;73.29;98680.13;4425325;32;33968;-78
2023/12/13 03:33:40;;;;;;;;;;;;;;;9.83;73.27;98671.34;4416888;32;34841;-77
2023/12/13 03:36:15;;;;;;;;;;;;;;;9.93;72.54;98670.81;4433924;32;33953;-77
2023/12/13 03:38:46;;;;;;;;;;;;;;;9.75;72.98;98675.41;4432041;32;34207;-77
2023/12/13 03:41:13;;;;;;;;;;;;;;;9.69;73.18;98667.47;4427082;32;34779;-78
2023/12/13 03:43:41;;;;;;;;;;;;;;;9.85;72.55;98659.34;4434718;32;34291;-79
2023/12/13 03:46:08;;;;;;;;;;;;;;;9.67;72.23;98656.22;4423113;32;34468;-77
2023/12/13 03:48:36;;;;;;;;;;;;;;;9.68;71.75;98647.62;4423695;32;34313;-78
2023/12/13 03:51:04;;;;;;;;;;;;;;;9.54;72.36;98639.44;4429447;32;34567;-77
2023/12/13 03:53:32;;;;;;;;;;;;;;;9.51;72.67;98642.81;4423666;32;34991;-77
2023/12/13 03:55:59;;;;;;;;;;;;;;;9.56;72.56;98633.50;4420933;32;34396;-77
2023/12/13 03:58:26;;;;;;;;;;;;;;;9.56;72.27;98628.34;4426884;32;33106;-76
2023/12/13 04:00:54;;;;;;;;;;;;;;;9.52;72.13;98616.16;4423427;32;33876;-78
2023/12/13 04:03:22;;;;;;;;;;;;;;;9.33;72.71;98631.91;4430407;32;33567;-76
2023/12/13 04:05:50;;;;;;;;;;;;;;;9.42;72.40;98630.47;4426511;32;34243;-77
2023/12/13 04:08:17;;;;;;;;;;;;;;;9.54;72.36;98624.84;4428420;32;33868;-77
2023/12/13 04:10:45;;;;;;;;;;;;;;;9.51;72.24;98634.22;4430655;32;34778;-78
2023/12/13 04:13:12;;;;;;;;;;;;;;;9.47;72.15;98632.38;4431595;32;34154;-77
2023/12/13 04:15:40;;;;;;;;;;;;;;;9.57;71.98;98629.22;4425217;32;34587;-78
2023/12/13 04:18:07;;;;;;;;;;;;;;;9.57;72.05;98629.22;4432489;32;33321;-78
2023/12/13 04:20:35;;;;;;;;;;;;;;;9.55;71.95;98630.88;4422419;32;34018;-77
2023/12/13 04:23:03;;;;;;;;;;;;;;;9.57;72.12;98624.91;4427216;32;34077;-78
2023/12/13 04:25:30;;;;;;;;;;;;;;;9.55;72.11;98626.56;4428380;32;34168;-77
2023/12/13 04:27:58;;;;;;;;;;;;;;;9.60;71.90;98626.69;4430171;32;33119;-78
2023/12/13 04:30:26;;;;;;;;;;;;;;;9.64;71.80;98624.28;4428675;32;34145;-77
2023/12/13 04:32:53;;;;;;;;;;;;;;;9.54;71.97;98616.19;4422930;32;34836;-78
2023/12/13 04:35:20;;;;;;;;;;;;;;;9.58;72.06;98613.75;4432813;32;34261;-78
2023/12/13 04:37:47;;;;;;;;;;;;;;;9.58;72.01;98611.16;4416733;32;33062;-77
2023/12/13 04:40:15;;;;;;;;;;;;;;;9.57;71.94;98611.13;4421612;32;34786;-78
2023/12/13 04:42:43;;;;;;;;;;;;;;;9.63;71.79;98619.91;4424762;32;34295;-77
2023/12/13 04:45:10;;;;;;;;;;;;;;;9.59;71.92;98615.50;4430448;32;35164;-78
2023/12/13 04:47:37;;;;;;;;;;;;;;;9.55;71.92;98610.19;4432279;32;34364;-78
2023/12/13 04:50:05;;;;;;;;;;;;;;;9.64;71.77;98606.16;4427251;32;33592;-77
2023/12/13 04:52:33;;;;;;;;;;;;;;;9.64;71.66;98611.34;4428908;32;34072;-77
2023/12/13 04:55:01;;;;;;;;;;;;;;;9.70;71.11;98609.78;4427992;32;34497;-77
2023/12/13 04:57:28;;;;;;;;;;;;;;;9.88;70.46;98615.47;4427920;32;33517;-78
2023/12/13 04:59:55;;;;;;;;;;;;;;;9.59;71.59;98620.66;4424861;32;33803;-78
2023/12/13 05:02:23;;;;;;;;;;;;;;;9.56;71.68;98627.44;4427962;32;34295;-77
2023/12/13 05:04:50;;;;;;;;;;;;;;;9.55;71.70;98625.72;4427742;32;34947;-77
2023/12/13 05:07:17;;;;;;;;;;;;;;;9.61;71.54;98623.28;4434876;32;33999;-78
2023/12/13 05:09:45;;;;;;;;;;;;;;;9.60;71.57;98617.25;4427185;32;34139;-76
2023/12/13 05:12:12;;;;;;;;;;;;;;;9.65;71.30;98615.66;4429240;32;34073;-78
2023/12/13 05:14:39;;;;;;;;;;;;;;;9.60;71.33;98625.00;4426728;32;35083;-78
2023/12/13 05:17:07;;;;;;;;;;;;;;;9.58;71.32;98631.84;4431785;32;33515;-78
2023/12/13 05:19:34;;;;;;;;;;;;;;;9.48;71.39;98627.22;4428093;32;34011;-78
2023/12/13 05:22:02;;;;;;;;;;;;;;;9.51;71.32;98629.91;4436747;32;34162;-78
2023/12/13 05:24:31;;;;;;;;;;;;;;;9.53;71.25;98625.66;4432458;32;34556;-77
2023/12/13 05:26:59;;;;;;;;;;;;;;;9.60;70.95;98629.28;4435551;32;33653;-78
2023/12/13 05:29:26;;;;;;;;;;;;;;;9.54;71.12;98624.84;4426326;32;33807;-78
2023/12/13 05:31:54;;;;;;;;;;;;;;;9.59;71.03;98618.06;4431909;32;34148;-76
2023/12/13 05:34:24;;;;;;;;;;;;;;;9.34;71.59;98610.44;4429615;32;34420;-79
2023/12/13 05:36:51;;;;;;;;;;;;;;;9.46;71.21;98610.78;4421848;32;34342;-78
2023/12/13 05:39:18;;;;;;;;;;;;;;;9.50;71.14;98610.03;4424008;32;34643;-78
2023/12/13 05:41:45;;;;;;;;;;;;;;;9.52;70.91;98616.16;4434551;32;33989;-78
2023/12/13 05:44:13;;;;;;;;;;;;;;;9.61;70.33;98606.06;4426132;32;34547;-78
2023/12/13 05:46:40;;;;;;;;;;;;;;;9.31;70.98;98599.97;4429818;32;34034;-77
2023/12/13 05:49:08;;;;;;;;;;;;;;;9.38;70.81;98592.47;4429144;32;33946;-77
2023/12/13 05:51:39;;;;;;;;;;;;;;;9.32;70.92;98592.28;4430481;32;34072;-77
2023/12/13 05:54:06;;;;;;;;;;;;;;;9.31;70.81;98590.53;4413381;32;33756;-77
2023/12/13 05:56:34;;;;;;;;;;;;;;;9.50;70.23;98597.13;4432897;32;33709;-78
2023/12/13 05:59:01;;;;;;;;;;;;;;;9.57;69.75;98593.03;4430436;32;34911;-77
2023/12/13 06:01:30;;;;;;;;;;;;;;;9.36;70.41;98588.09;4430192;32;34024;-79
2023/12/13 06:03:57;;;;;;;;;;;;;;;9.32;70.75;98588.84;4433147;32;35026;-78
2023/12/13 06:06:25;;;;;;;;;;;;;;;9.28;70.91;98584.41;4431619;32;33180;-77
2023/12/13 06:08:52;;;;;;;;;;;;;;;9.33;70.80;98587.97;4424718;32;34126;-78
2023/12/13 06:11:20;;;;;;;;;;;;;;;9.35;70.91;98586.31;4431381;32;34298;-77
2023/12/13 06:13:47;;;;;;;;;;;;;;;9.37;70.68;98579.53;4425369;32;34329;-77
2023/12/13 06:16:15;;;;;;;;;;;;;;;9.34;70.81;98574.25;4428588;32;34336;-78
2023/12/13 06:18:42;;;;;;;;;;;;;;;9.39;70.60;98567.50;4430500;32;34196;-78
2023/12/13 06:21:10;;;;;;;;;;;;;;;9.42;70.12;98568.47;4422739;32;34793;-77
2023/12/13 06:23:37;;;;;;;;;;;;;;;9.43;69.99;98564.19;4436572;32;35202;-77
2023/12/13 06:26:04;;;;;;;;;;;;;;;9.11;71.14;98555.47;4427885;32;32279;-77
2023/12/13 06:28:32;;;;;;;;;;;;;;;9.21;70.76;98558.38;4434512;32;33516;-77
2023/12/13 06:30:59;;;;;;;;;;;;;;;9.14;71.04;98563.31;4432648;32;34914;-77
2023/12/13 06:33:26;;;;;;;;;;;;;;;9.21;70.83;98566.13;4432432;32;35067;-78
2023/12/13 06:35:54;;;;;;;;;;;;;;;9.29;70.71;98573.22;4432531;32;33603;-78
2023/12/13 06:38:21;;;;;;;;;;;;;;;9.42;70.16;98583.97;4423491;32;34291;-77
2023/12/13 06:40:48;;;;;;;;;;;;;;;9.37;70.27;98587.28;4427406;32;34739;-77
2023/12/13 06:43:16;;;;;;;;;;;;;;;9.43;70.20;98582.28;4436907;32;35157;-77
2023/12/13 06:45:43;;;;;;;;;;;;;;;9.29;70.77;98575.81;4428356;32;34295;-77
2023/12/13 06:48:11;;;;;;;;;;;;;;;9.23;70.97;98577.41;4435273;32;34910;-76
2023/12/13 06:50:38;;;;;;;;;;;;;;;9.24;71.24;98584.28;4424247;32;34962;-78
2023/12/13 06:53:06;;;;;;;;;;;;;;;9.23;71.30;98585.16;4425846;32;35055;-77
2023/12/13 06:55:33;;;;;;;;;;;;;;;9.12;71.80;98576.19;4431548;32;32412;-77
2023/12/13 06:58:00;;;;;;;;;;;;;;;9.23;71.86;98577.41;4426480;32;34099;-78
2023/12/13 07:00:28;;;;;;;;;;;;;;;9.36;71.61;98583.78;4432385;32;33984;-78
2023/12/13 07:02:55;;;;;;;;;;;;;;;9.44;71.13;98586.59;4428329;32;34960;-76
2023/12/13 07:05:22;;;;;;;;;;;;;;;9.49;71.10;98579.88;4425082;32;33596;-77
2023/12/13 07:07:51;;;;;;;;;;;;;;;9.54;70.95;98587.75;4429755;32;33895;-77
2023/12/13 07:10:18;;;;;;;;;;;;;;;9.54;71.02;98578.31;4416236;32;32631;-77
2023/12/13 07:12:46;;;;;;;;;;;;;;;9.59;70.85;98570.66;4423423;32;35052;-77
2023/12/13 07:15:14;;;;;;;;;;;;;;;9.45;70.94;98570.28;4430363;32;33743;-77
2023/12/13 07:17:42;;;;;;;;;;;;;;;9.65;70.24;98578.59;4426182;32;33524;-77
2023/12/13 07:20:10;;;;;;;;;;;;;;;9.62;70.64;98574.22;4425643;32;35082;-78
2023/12/13 07:22:37;;;;;;;;;;;;;;;9.64;70.62;98574.28;4425677;32;35099;-77
2023/12/13 07:25:06;;;;;;;;;;;;;;;9.57;70.62;98573.19;4431333;32;34044;-76
2023/12/13 07:27:34;;;;;;;;;;;;;;;9.62;70.48;98571.62;4427496;32;34648;-77
2023/12/13 07:30:02;;;;;;;;;;;;;;;9.63;70.46;98570.78;4431785;32;33583;-76
2023/12/13 07:32:29;;;;;;;;;;;;;;;9.49;70.99;98569.53;4427000;32;34147;-79
2023/12/13 07:34:57;;;;;;;;;;;;;;;9.61;70.92;98580.22;4426172;32;34303;-76
2023/12/13 07:37:24;;;;;;;;;;;;;;;9.56;70.94;98578.31;4422607;32;33923;-76
2023/12/13 07:39:52;;;;;;;;;;;;;;;9.49;71.31;98579.00;4427433;32;33759;-76
2023/12/13 07:42:19;;;;;;;;;;;;;;;9.51;71.46;98578.19;4418630;32;34537;-76
2023/12/13 07:44:47;;;;;;;;;;;;;;;9.54;71.35;98575.72;4424077;32;33654;-76
2023/12/13 07:47:14;;;;;;;;;;;;;;;9.54;71.05;98567.97;4430698;32;34796;-76
2023/12/13 07:49:44;;;;;;;;;;;;;;;9.48;70.84;98562.59;4432746;32;33831;-77
2023/12/13 07:52:12;;;;;;;;;;;;;;;9.47;71.06;98560.84;4421263;32;34961;-76
2023/12/13 07:54:39;;;;;;;;;;;;;;;9.73;70.37;98558.13;4421919;32;33629;-77
2023/12/13 07:57:06;;;;;;;;;;;;;;;9.53;70.75;98555.84;4425698;32;34347;-75
2023/12/13 07:59:34;;;;;;;;;;;;;;;9.53;70.53;98549.81;4427106;32;34330;-77
2023/12/13 08:02:01;;;;;;;;;;;;;;;9.50;74.26;98545.41;4425840;32;34904;-77
2023/12/13 08:04:29;;;;;;;;;;;;;;;9.40;73.63;98538.25;4415500;32;32015;-76
2023/12/13 08:06:56;;;;;;;;;;;;;;;9.44;73.22;98534.91;4417872;32;33648;-76
2023/12/13 08:09:23;;;;;;;;;;;;;;;9.44;72.93;98527.16;4428850;32;34860;-77
2023/12/13 08:11:51;;;;;;;;;;;;;;;9.45;72.76;98534.97;4420967;32;34284;-77
2023/12/13 08:14:18;;;;;;;;;;;;;;;9.37;72.93;98530.41;4418581;32;32935;-77
2023/12/13 08:16:47;;;;;;;;;;;;;;;9.55;72.31;98533.50;4427358;32;34224;-78
2023/12/13 08:19:15;;;;;;;;;;;;;;;9.47;72.37;98524.66;4439171;32;34247;-77
2023/12/13 08:21:42;;;;;;;;;;;;;;;9.42;72.57;98527.09;4430690;32;34378;-77
2023/12/13 08:24:12;;;;;;;;;;;;;;;9.63;71.95;98537.19;4433363;32;33322;-77
2023/12/13 08:26:39;;;;;;;;;;;;;;;9.57;72.05;98531.84;4433522;32;33086;-77
2023/12/13 08:29:07;;;;;;;;;;;;;;;9.62;71.99;98525.09;4437880;32;34355;-77
2023/12/13 08:31:34;;;;;;;;;;;;;;;9.63;71.86;98529.41;4443683;32;34627;-76
2023/12/13 08:34:02;;;;;;;;;;;;;;;9.51;72.33;98526.50;4429386;32;34145;-77
2023/12/13 08:36:29;;;;;;;;;;;;;;;9.63;72.07;98521.66;4441300;32;34519;-76
2023/12/13 08:38:58;;;;;;;;;;;;;;;9.65;72.05;98514.81;4437553;32;33828;-77
2023/12/13 08:41:25;;;;;;;;;;;;;;;9.71;71.84;98523.59;4428941;32;34326;-77
2023/12/13 08:43:55;;;;;;;;;;;;;;;9.60;72.17;98529.34;4432731;32;33732;-76
2023/12/13 08:46:22;;;;;;;;;;;;;;;9.68;71.96;98534.75;4431157;32;33811;-77
2023/12/13 08:48:50;;;;;;;;;;;;;;;9.64;72.05;98533.78;4430692;32;34282;-78
2023/12/13 08:51:17;;;;;;;;;;;;;;;9.69;71.90;98543.38;4431522;32;35312;-78
2023/12/13 08:53:44;;;;;;;;;;;;;;;9.71;71.96;98523.59;4429173;32;34266;-77
2023/12/13 08:56:12;;;;;;;;;;;;;;;9.75;71.93;98530.59;4434073;32;33602;-78
2023/12/13 08:58:39;;;;;;;;;;;;;;;10.11;69.93;98538.47;4424115;32;34102;-78
2023/12/13 09:01:06;;;;;;;;;;;;;;;10.31;68.44;98539.00;4426334;32;34862;-78
2023/12/13 09:03:34;;;;;;;;;;;;;;;10.19;68.70;98528.31;4429216;32;33747;-77
2023/12/13 09:06:01;;;;;;;;;;;;;;;10.07;68.83;98528.88;4432218;32;33806;-77
2023/12/13 09:08:28;;;;;;;;;;;;;;;9.86;69.78;98524.00;4434910;32;34273;-78
2023/12/13 09:10:59;;;;;;;;;;;;;;;9.84;70.10;98520.50;4420439;32;33295;-76
2023/12/13 09:13:27;;;;;;;;;;;;;;;9.74;70.07;98515.94;4428267;32;31262;-77
2023/12/13 09:15:55;;;;;;;;;;;;;;;9.77;70.42;98513.41;4426919;32;34653;-77
2023/12/13 09:18:23;;;;;;;;;;;;;;;9.72;70.74;98517.59;4423291;32;33985;-77
2023/12/13 09:20:51;;;;;;;;;;;;;;;9.55;71.06;98517.13;4429167;32;35014;-78
2023/12/13 09:23:22;;;;;;;;;;;;;;;9.79;70.42;98511.75;4428811;32;34183;-77
2023/12/13 09:25:49;;;;;;;;;;;;;;;9.65;70.93;98513.97;4432514;32;33957;-77
2023/12/13 09:28:17;;;;;;;;;;;;;;;9.65;71.39;98512.25;4418204;32;33149;-77
2023/12/13 09:30:44;;;;;;;;;;;;;;;9.61;71.49;98525.91;4427358;32;34331;-77
2023/12/13 09:33:13;;;;;;;;;;;;;;;9.61;71.72;98537.97;4424586;32;33999;-78
2023/12/13 09:35:41;;;;;;;;;;;;;;;9.81;71.03;98531.66;4418240;32;33842;-78
2023/12/13 09:38:09;;;;;;;;;;;;;;;9.66;71.49;98526.06;4420712;32;33991;-77
2023/12/13 09:40:37;;;;;;;;;;;;;;;9.67;71.52;98524.34;4435773;32;34485;-77
2023/12/13 09:43:04;;;;;;;;;;;;;;;9.82;71.41;98527.34;4424585;32;34287;-78
2023/12/13 09:45:32;;;;;;;;;;;;;;;9.83;71.39;98523.91;4437803;32;34823;-78
2023/12/13 09:48:02;;;;;;;;;;;;;;;9.83;71.58;98529.09;4422970;32;34289;-78
2023/12/13 09:50:29;;;;;;;;;;;;;;;9.76;71.66;98528.06;4406257;32;33785;-78
2023/12/13 09:52:56;;;;;;;;;;;;;;;9.82;71.76;98527.34;4419625;32;33898;-78
2023/12/13 09:55:24;;;;;;;;;;;;;;;9.82;71.67;98523.06;4421584;32;34121;-78
2023/12/13 09:57:52;;;;;;;;;;;;;;;9.88;71.50;98532.69;4421713;32;34943;-78
2023/12/13 10:00:20;;;;;;;;;;;;;;;9.80;71.65;98523.84;4415705;32;34534;-77
2023/12/13 10:02:47;;;;;;;;;;;;;;;9.84;71.37;98525.69;4427784;32;33266;-79
2023/12/13 10:05:16;;;;;;;;;;;;;;;9.96;71.35;98522.56;4428794;32;34254;-79
2023/12/13 10:07:44;;;;;;;;;;;;;;;9.88;71.40;98527.53;4421266;32;33876;-78
2023/12/13 10:10:14;;;;;;;;;;;;;;;9.82;71.64;98527.34;4429419;32;34896;-79
2023/12/13 10:12:42;;;;;;;;;;;;;;;9.94;71.22;98527.69;4429487;32;33346;-78
2023/12/13 10:15:12;;;;;;;;;;;;;;;9.92;71.30;98523.31;4429716;32;34388;-77
2023/12/13 10:17:40;;;;;;;;;;;;;;;9.93;71.36;98520.78;4427906;32;33796;-78
2023/12/13 10:20:10;;;;;;;;;;;;;;;9.97;71.40;98507.06;4430181;32;34464;-77
2023/12/13 10:22:38;;;;;;;;;;;;;;;9.98;71.16;98513.13;4426848;32;33233;-77
2023/12/13 10:25:07;;;;;;;;;;;;;;;9.94;71.58;98512.16;4427978;32;34790;-77
2023/12/13 10:27:35;;;;;;;;;;;;;;;10.01;71.46;98508.03;4411231;32;34194;-78
2023/12/13 10:30:04;;;;;;;;;;;;;;;10.11;70.79;98484.16;4413149;32;34019;-78
2023/12/13 10:32:32;;;;;;;;;;;;;;;10.09;70.97;98496.16;4425486;32;33572;-78
2023/12/13 10:35:01;;;;;;;;;;;;;;;10.03;71.18;98488.25;4428065;32;33885;-78
2023/12/13 10:37:30;;;;;;;;;;;;;;;10.04;71.12;98483.13;4424968;32;34837;-77
2023/12/13 10:39:58;;;;;;;;;;;;;;;10.31;69.86;98489.84;4445152;32;34445;-77
2023/12/13 10:42:25;;;;;;;;;;;;;;;10.07;70.43;98491.81;4422849;32;33360;-77
2023/12/13 10:44:53;;;;;;;;;;;;;;;10.11;70.66;98488.44;4429605;32;34098;-77
2023/12/13 10:47:25;;;;;;;;;;;;;;;10.07;70.63;98486.63;4432552;32;34988;-78
2023/12/13 10:49:54;;;;;;;;;;;;;;;10.16;70.27;98486.84;4432870;32;34405;-78
2023/12/13 10:52:24;;;;;;;;;;;;;;;10.09;69.99;98469.44;4422628;32;33587;-78
2023/12/13 10:54:52;;;;;;;;;;;;;;;10.11;70.10;98465.16;4424492;32;34829;-77
2023/12/13 10:57:19;;;;;;;;;;;;;;;9.81;71.20;98455.75;4423457;32;34304;-78
2023/12/13 10:59:46;;;;;;;;;;;;;;;10.00;71.11;98450.22;4421306;32;34695;-77
2023/12/13 11:02:16;;;;;;;;;;;;;;;10.04;70.96;98446.91;4404477;32;34239;-78
2023/12/13 11:04:43;;;;;;;;;;;;;;;9.87;71.47;98457.62;4424405;32;34012;-78
2023/12/13 11:07:11;;;;;;;;;;;;;;;9.83;71.50;98451.50;4423106;32;33899;-78
2023/12/13 11:09:48;;;;;;;;;;;;;;;9.92;71.33;98453.47;4430470;32;34525;-78
2023/12/13 11:12:18;;;;;;;;;;;;;;;9.92;71.30;98441.41;4427444;32;33661;-77
2023/12/13 11:14:46;;;;;;;;;;;;;;;9.94;71.41;98434.56;4422803;32;33937;-77
2023/12/13 11:17:14;;;;;;;;;;;;;;;10.08;71.05;98437.47;4424738;32;34923;-77
2023/12/13 11:19:42;;;;;;;;;;;;;;;10.18;70.49;98433.44;4418716;32;35056;-77
2023/12/13 11:22:12;;;;;;;;;;;;;;;10.16;70.57;98429.91;4430665;32;33478;-77
2023/12/13 11:24:41;;;;;;;;;;;;;;;10.29;72.23;98431.09;4423557;32;34210;-78
2023/12/13 11:27:10;;;;;;;;;;;;;;;10.06;72.87;98427.94;4423640;32;33425;-77
2023/12/13 11:29:37;;;;;;;;;;;;;;;10.37;70.83;98420.12;4425059;32;33980;-77
2023/12/13 11:32:04;;;;;;;;;;;;;;;10.09;71.56;98412.50;4435838;32;32606;-77
2023/12/13 11:34:34;;;;;;;;;;;;;;;10.01;72.11;98415.78;4428564;32;34256;-77
2023/12/13 11:37:07;;;;;;;;;;;;;;;10.05;71.77;98406.38;4424809;32;35024;-77
2023/12/13 11:39:36;;;;;;;;;;;;;;;9.96;72.26;98413.91;4419683;32;34869;-77
2023/12/13 11:42:04;;;;;;;;;;;;;;;10.06;71.94;98407.25;4421265;32;32765;-77
2023/12/13 11:44:32;;;;;;;;;;;;;;;10.06;71.92;98402.94;4425869;32;34106;-77
2023/12/13 11:46:59;;;;;;;;;;;;;;;9.92;72.17;98406.91;4426302;32;35131;-78
2023/12/13 11:49:27;;;;;;;;;;;;;;;9.99;72.01;98404.50;4426819;32;34274;-77
2023/12/13 11:51:55;;;;;;;;;;;;;;;10.26;71.53;98410.31;4435941;32;33960;-77
2023/12/13 11:54:22;;;;;;;;;;;;;;;10.26;71.18;98408.59;4422684;32;33884;-77
2023/12/13 11:56:50;;;;;;;;;;;;;;;10.06;71.69;98404.66;4423719;32;33912;-77
2023/12/13 11:59:20;;;;;;;;;;;;;;;10.08;71.72;98406.44;4438511;32;34361;-77
2023/12/13 12:01:47;;;;;;;;;;;;;;;10.09;71.73;98409.91;4426871;32;32517;-77
2023/12/13 12:04:19;;;;;;;;;;;;;;;10.07;71.68;98398.66;4422358;32;34169;-77
2023/12/13 12:06:50;;;;;;;;;;;;;;;10.07;71.78;98398.66;4424403;32;33751;-76
2023/12/13 12:09:18;;;;;;;;;;;;;;;10.05;74.26;98406.38;4418102;32;34279;-76
2023/12/13 12:11:45;;;;;;;;;;;;;;;10.20;73.50;98405.88;4427255;32;34382;-77
2023/12/13 12:14:12;;;;;;;;;;;;;;;10.19;73.15;98404.12;4423953;32;33089;-77
2023/12/13 12:16:39;;;;;;;;;;;;;;;10.31;72.31;98409.59;4423419;32;35551;-76
2023/12/13 12:19:07;;;;;;;;;;;;;;;10.21;72.07;98410.19;4429576;32;35031;-76
2023/12/13 12:21:37;;;;;;;;;;;;;;;10.08;73.05;98408.16;4433460;32;33756;-77
2023/12/13 12:24:04;;;;;;;;;;;;;;;10.32;71.72;98421.72;4411533;32;34080;-76
2023/12/13 12:26:32;;;;;;;;;;;;;;;10.38;73.32;98424.44;4433479;32;34880;-76
2023/12/13 12:28:59;;;;;;;;;;;;;;;10.27;73.52;98427.59;4429621;32;34888;-78
2023/12/13 12:31:27;;;;;;;;;;;;;;;10.50;82.03;98423.00;4408503;32;32907;-78
2023/12/13 12:33:54;;;;;;;;;;;;;;;12.56;87.85;98419.09;4422197;32;34710;-77
2023/12/13 12:36:22;;;;;;;;;;;;;;;11.92;85.25;98430.19;4433550;32;33426;-77
2023/12/13 12:38:50;;;;;;;;;;;;;;;11.75;81.53;98432.44;4427834;32;34502;-76
2023/12/13 12:41:17;;;;;;;;;;;;;;;11.66;78.11;98428.81;4411747;32;33484;-76
2023/12/13 12:43:49;;;;;;;;;;;;;;;11.19;78.40;98433.13;4429879;32;34809;-76
2023/12/13 12:46:20;;;;;;;;;;;;;;;11.07;76.79;98434.56;4437088;32;35020;-77
2023/12/13 12:48:48;;;;;;;;;;;;;;;11.01;74.78;98432.75;4434603;32;34047;-77
2023/12/13 12:51:15;;;;;;;;;;;;;;;10.74;75.56;98440.78;4425273;32;34376;-77
2023/12/13 12:53:43;;;;;;;;;;;;;;;10.84;73.29;98436.69;4431909;32;34199;-76
2023/12/13 12:56:12;;;;;;;;;;;;;;;10.65;73.93;98440.59;4420679;32;34152;-76
2023/12/13 12:58:39;;;;;;;;;;;;;;;10.31;81.08;98427.72;4428449;32;34439;-76